createdAt,value
2023-01-29T00:00:05.786Z,6.60
2023-01-29T00:05:26.525Z,6.60
2023-01-29T00:10:29.481Z,6.50
2023-01-29T00:15:33.041Z,6.50
2023-01-29T00:20:35.185Z,6.50
2023-01-29T00:25:37.325Z,6.40
2023-01-29T00:30:41.507Z,6.40
2023-01-29T00:35:43.625Z,6.40
2023-01-29T00:40:45.807Z,6.40
2023-01-29T00:45:49.336Z,6.40
2023-01-29T00:50:51.484Z,6.40
2023-01-29T00:55:53.645Z,6.40
2023-01-29T01:00:57.329Z,6.40
2023-01-29T01:06:05.832Z,6.40
2023-01-29T01:11:07.968Z,6.40
2023-01-29T01:16:13.639Z,6.40
2023-01-29T01:21:15.748Z,6.40
2023-01-29T01:26:18.173Z,6.40
2023-01-29T01:31:21.862Z,6.40
2023-01-29T01:36:24.026Z,6.40
2023-01-29T01:41:26.140Z,6.50
2023-01-29T01:46:32.223Z,6.50
2023-01-29T01:51:40.353Z,6.50
2023-01-29T01:56:46.587Z,6.50
2023-01-29T02:01:54.230Z,6.50
2023-01-29T02:06:58.510Z,6.50
2023-01-29T02:12:02.448Z,6.50
2023-01-29T02:17:07.164Z,6.60
2023-01-29T02:22:37.012Z,6.60
2023-01-29T02:28:14.314Z,6.50
2023-01-29T02:33:25.987Z,6.60
2023-01-29T02:38:36.679Z,6.60
2023-01-29T02:43:45.467Z,6.60
2023-01-29T02:48:55.578Z,6.60
2023-01-29T02:54:02.518Z,6.60
2023-01-29T02:59:10.054Z,6.60
2023-01-29T03:04:19.704Z,6.60
2023-01-29T03:09:28.553Z,6.70
2023-01-29T03:14:36.537Z,6.70
2023-01-29T03:19:42.607Z,6.70
2023-01-29T03:24:48.226Z,6.70
2023-01-29T03:29:54.782Z,6.60
2023-01-29T03:35:02.293Z,6.60
2023-01-29T03:40:07.233Z,6.70
2023-01-29T03:45:18.338Z,6.70
2023-01-29T03:50:33.001Z,6.70
2023-01-29T03:55:41.939Z,6.70
2023-01-29T04:00:53.686Z,6.70
2023-01-29T04:06:03.455Z,6.70
2023-01-29T04:11:12.914Z,6.70
2023-01-29T04:16:19.662Z,6.70
2023-01-29T04:21:22.808Z,6.70
2023-01-29T04:26:56.782Z,6.80
2023-01-29T04:32:09.583Z,6.70
2023-01-29T04:37:17.017Z,6.70
2023-01-29T04:42:29.362Z,6.80
2023-01-29T04:47:41.776Z,6.80
2023-01-29T04:52:51.100Z,6.80
2023-01-29T04:57:59.042Z,6.80
2023-01-29T05:03:02.918Z,6.80
2023-01-29T05:08:05.989Z,6.80
2023-01-29T05:13:11.866Z,6.80
2023-01-29T05:18:15.469Z,6.80
2023-01-29T05:23:18.442Z,6.80
2023-01-29T05:28:20.595Z,6.80
2023-01-29T05:33:25.891Z,6.80
2023-01-29T05:38:29.303Z,6.80
2023-01-29T05:43:31.487Z,6.80
2023-01-29T05:48:35.055Z,6.80
2023-01-29T05:53:37.236Z,6.80
2023-01-29T05:58:39.534Z,6.70
2023-01-29T06:03:43.450Z,6.70
2023-01-29T06:08:45.695Z,6.70
2023-01-29T06:13:48.026Z,6.70
2023-01-29T06:18:51.609Z,6.70
2023-01-29T06:23:54.130Z,6.70
2023-01-29T06:28:56.323Z,6.70
2023-01-29T06:33:59.818Z,6.70
2023-01-29T06:39:02.059Z,6.70
2023-01-29T06:44:04.325Z,6.70
2023-01-29T06:49:07.857Z,6.80
2023-01-29T06:54:10.213Z,6.80
2023-01-29T06:59:12.433Z,6.80
2023-01-29T07:04:15.974Z,6.80
2023-01-29T07:09:18.159Z,6.80
2023-01-29T07:14:20.395Z,6.80
2023-01-29T07:19:23.912Z,6.80
2023-01-29T07:24:26.292Z,6.80
2023-01-29T07:29:28.474Z,6.80
2023-01-29T07:34:32.146Z,6.80
2023-01-29T07:39:34.236Z,6.80
2023-01-29T07:44:36.330Z,6.80
2023-01-29T07:49:39.902Z,6.80
2023-01-29T07:54:42.007Z,6.80
2023-01-29T07:59:44.196Z,6.80
2023-01-29T08:04:47.737Z,6.80
2023-01-29T08:09:50.500Z,6.90
2023-01-29T08:14:52.630Z,6.80
2023-01-29T08:19:56.257Z,6.90
2023-01-29T08:25:06.428Z,6.90
2023-01-29T08:30:12.586Z,6.90
2023-01-29T08:35:16.602Z,7.00
2023-01-29T08:40:19.615Z,7.00
2023-01-29T08:45:21.893Z,7.00
2023-01-29T08:50:25.487Z,7.00
2023-01-29T08:55:30.592Z,7.00
2023-01-29T09:00:32.739Z,7.00
2023-01-29T09:05:37.782Z,7.00
2023-01-29T09:10:39.994Z,7.10
2023-01-29T09:15:42.091Z,7.10
2023-01-29T09:20:45.690Z,7.20
2023-01-29T09:25:47.864Z,7.20
2023-01-29T09:30:50.081Z,7.30
2023-01-29T09:35:53.851Z,7.30
2023-01-29T09:41:04.215Z,7.30
2023-01-29T09:46:14.760Z,7.30
2023-01-29T09:51:29.040Z,7.30
2023-01-29T09:56:31.976Z,7.30
2023-01-29T10:01:42.349Z,7.30
2023-01-29T10:06:57.657Z,7.40
2023-01-29T10:12:12.972Z,7.40
2023-01-29T10:17:41.648Z,7.40
2023-01-29T10:23:02.304Z,7.40
2023-01-29T10:28:16.976Z,7.30
2023-01-29T10:33:24.976Z,7.30
2023-01-29T10:38:38.611Z,7.30
2023-01-29T10:43:51.656Z,7.30
2023-01-29T10:49:05.352Z,7.30
2023-01-29T10:54:25.324Z,7.40
2023-01-29T10:59:46.166Z,7.40
2023-01-29T11:04:48.674Z,7.50
2023-01-29T11:09:57.721Z,7.50
2023-01-29T11:15:06.095Z,7.60
2023-01-29T11:20:26.866Z,7.60
2023-01-29T11:25:31.462Z,7.70
2023-01-29T11:30:37.417Z,7.70
2023-01-29T11:35:39.510Z,7.70
2023-01-29T11:40:43.925Z,7.70
2023-01-29T11:45:47.220Z,7.70
2023-01-29T11:50:54.729Z,7.70
2023-01-29T11:55:58.301Z,7.70
2023-01-29T12:01:00.578Z,7.70
2023-01-29T12:06:06.710Z,7.70
2023-01-29T12:11:13.570Z,7.70
2023-01-29T12:16:26.907Z,7.70
2023-01-29T12:21:35.694Z,7.70
2023-01-29T12:26:45.710Z,7.70
2023-01-29T12:31:58.290Z,7.70
2023-01-29T12:37:09.485Z,7.80
2023-01-29T12:42:18.139Z,7.80
2023-01-29T12:47:24.436Z,7.80
2023-01-29T12:52:37.683Z,7.80
2023-01-29T12:57:46.743Z,7.90
2023-01-29T13:02:55.597Z,7.90
2023-01-29T13:08:06.362Z,7.90
2023-01-29T13:13:19.534Z,7.90
2023-01-29T13:18:40.224Z,7.90
2023-01-29T13:23:45.175Z,7.80
2023-01-29T13:28:51.121Z,7.80
2023-01-29T13:33:55.386Z,7.80
2023-01-29T13:39:19.298Z,7.70
2023-01-29T13:44:25.082Z,7.70
2023-01-29T13:49:34.947Z,7.70
2023-01-29T13:54:38.534Z,7.70
2023-01-29T13:59:52.966Z,7.70
2023-01-29T14:05:28.131Z,7.70
2023-01-29T14:10:34.420Z,7.70
2023-01-29T14:15:38.408Z,7.70
2023-01-29T14:20:50.829Z,7.70
2023-01-29T14:25:54.762Z,7.70
2023-01-29T14:30:57.198Z,7.70
2023-01-29T14:36:03.369Z,7.70
2023-01-29T14:41:21.953Z,7.70
2023-01-29T14:46:44.938Z,7.70
2023-01-29T14:51:49.141Z,7.70
2023-01-29T14:57:00.523Z,7.60
2023-01-29T15:02:15.114Z,7.60
2023-01-29T15:07:27.871Z,7.60
2023-01-29T15:12:41.927Z,7.50
2023-01-29T15:17:57.869Z,7.50
2023-01-29T15:23:01.232Z,7.50
2023-01-29T15:28:07.593Z,7.40
2023-01-29T15:33:12.065Z,7.40
2023-01-29T15:38:17.848Z,7.30
2023-01-29T15:43:26.429Z,7.20
2023-01-29T15:48:33.432Z,7.20
2023-01-29T15:53:42.837Z,7.20
2023-01-29T15:58:51.308Z,7.20
2023-01-29T16:03:54.807Z,7.10
2023-01-29T16:08:57.748Z,7.10
2023-01-29T16:14:06.436Z,7.10
2023-01-29T16:19:21.464Z,7.10
2023-01-29T16:24:25.360Z,7.10
2023-01-29T16:29:33.982Z,7.10
2023-01-29T16:34:40.631Z,7.10
2023-01-29T16:39:49.682Z,7.20
2023-01-29T16:44:59.754Z,7.20
2023-01-29T16:50:23.523Z,7.20
2023-01-29T16:55:27.275Z,7.20
2023-01-29T17:00:32.299Z,7.20
2023-01-29T17:05:38.698Z,7.20
2023-01-29T17:10:48.845Z,7.20
2023-01-29T17:15:55.792Z,7.20
2023-01-29T17:21:01.718Z,7.20
2023-01-29T17:26:14.778Z,7.20
2023-01-29T17:31:28.238Z,7.20
2023-01-29T17:36:31.143Z,7.20
2023-01-29T17:41:37.348Z,7.20
2023-01-29T17:46:51.359Z,7.20
2023-01-29T17:52:00.771Z,7.20
2023-01-29T17:57:08.128Z,7.20
2023-01-29T18:02:29.793Z,7.20
2023-01-29T18:07:32.864Z,7.20
2023-01-29T18:12:35.689Z,7.10
2023-01-29T18:17:42.071Z,7.10
2023-01-29T18:22:46.985Z,7.10
2023-01-29T18:27:59.069Z,7.10
2023-01-29T18:33:03.344Z,7.00
2023-01-29T18:38:06.709Z,7.10
2023-01-29T18:43:09.804Z,7.00
2023-01-29T18:48:14.431Z,7.00
2023-01-29T18:53:17.604Z,7.00
2023-01-29T18:58:27.787Z,7.00
2023-01-29T19:03:42.408Z,7.00
2023-01-29T19:08:54.687Z,7.00
2023-01-29T19:13:59.403Z,7.00
2023-01-29T19:19:03.746Z,7.00
2023-01-29T19:24:10.028Z,7.00
2023-01-29T19:29:15.939Z,7.00
2023-01-29T19:34:20.260Z,7.00
2023-01-29T19:39:23.095Z,7.00
2023-01-29T19:44:25.696Z,7.00
2023-01-29T19:49:52.122Z,7.00
2023-01-29T19:54:54.631Z,7.00
2023-01-29T20:00:01.334Z,7.10
2023-01-29T20:05:06.836Z,7.10
2023-01-29T20:10:14.960Z,7.10
2023-01-29T20:15:20.450Z,7.10
2023-01-29T20:20:25.512Z,7.20
2023-01-29T20:25:35.441Z,7.20
2023-01-29T20:30:41.670Z,7.20
2023-01-29T20:35:46.413Z,7.20
2023-01-29T20:40:52.237Z,7.20
2023-01-29T20:45:58.207Z,7.20
2023-01-29T20:51:14.184Z,7.20
2023-01-29T20:56:23.740Z,7.30
2023-01-29T21:01:40.963Z,7.30
2023-01-29T21:06:51.359Z,7.30
2023-01-29T21:12:12.420Z,7.30
2023-01-29T21:17:15.379Z,7.30
2023-01-29T21:22:27.604Z,7.30
2023-01-29T21:27:35.374Z,7.30
2023-01-29T21:32:45.513Z,7.30
2023-01-29T21:37:52.651Z,7.40
2023-01-29T21:42:58.084Z,7.30
2023-01-29T21:48:10.581Z,7.30
2023-01-29T21:53:25.057Z,7.40
2023-01-29T21:58:28.976Z,7.40
2023-01-29T22:03:37.527Z,7.50
2023-01-29T22:08:45.113Z,7.50
2023-01-29T22:14:00.353Z,7.50
2023-01-29T22:19:08.500Z,7.60
2023-01-29T22:24:14.807Z,7.60
2023-01-29T22:29:20.084Z,7.70
2023-01-29T22:34:24.595Z,7.70
2023-01-29T22:39:29.645Z,7.70
2023-01-29T22:44:32.498Z,7.70
2023-01-29T22:49:42.976Z,7.70
2023-01-29T22:54:51.273Z,7.80
2023-01-29T22:59:57.741Z,7.80
2023-01-29T23:05:00.641Z,7.80
2023-01-29T23:10:08.798Z,7.80
2023-01-29T23:15:13.785Z,7.90
2023-01-29T23:20:19.044Z,7.90
2023-01-29T23:25:23.431Z,7.90
2023-01-29T23:30:28.825Z,7.90
2023-01-29T23:35:35.609Z,8.00
2023-01-29T23:40:46.868Z,8.00
2023-01-29T23:45:53.541Z,8.10
2023-01-29T23:50:56.361Z,8.10
2023-01-29T23:56:05.161Z,8.10
